createdAt,value
2023-02-11T00:00:04.469Z,2.48
2023-02-11T00:00:14.463Z,2.40
2023-02-11T00:00:24.461Z,2.53
2023-02-11T00:00:34.457Z,2.38
2023-02-11T00:00:44.467Z,2.64
2023-02-11T00:00:54.476Z,2.40
2023-02-11T00:01:04.454Z,2.41
2023-02-11T00:01:15.173Z,2.33
2023-02-11T00:01:24.458Z,2.37
2023-02-11T00:01:34.457Z,2.38
2023-02-11T00:01:44.456Z,2.22
2023-02-11T00:01:54.551Z,2.41
2023-02-11T00:02:04.486Z,2.41
2023-02-11T00:02:15.256Z,2.51
2023-02-11T00:02:24.461Z,2.27
2023-02-11T00:02:34.519Z,2.41
2023-02-11T00:02:47.494Z,2.70
2023-02-11T00:02:54.464Z,2.53
2023-02-11T00:03:04.641Z,2.40
2023-02-11T00:03:14.479Z,2.51
2023-02-11T00:03:24.467Z,2.41
2023-02-11T00:03:34.501Z,2.46
2023-02-11T00:03:44.502Z,2.41
2023-02-11T00:03:54.467Z,2.44
2023-02-11T00:04:04.511Z,2.38
2023-02-11T00:04:14.464Z,2.49
2023-02-11T00:04:24.451Z,2.27
2023-02-11T00:04:34.448Z,2.30
2023-02-11T00:04:44.445Z,2.40
2023-02-11T00:04:54.443Z,2.37
2023-02-11T00:05:04.444Z,2.40
2023-02-11T00:05:14.441Z,2.44
2023-02-11T00:05:25.173Z,2.23
2023-02-11T00:05:34.434Z,2.37
2023-02-11T00:05:44.444Z,2.33
2023-02-11T00:05:54.438Z,2.41
2023-02-11T00:06:04.521Z,2.48
2023-02-11T00:06:14.440Z,2.52
2023-02-11T00:06:24.480Z,2.48
2023-02-11T00:06:34.434Z,2.37
2023-02-11T00:06:44.449Z,2.51
2023-02-11T00:06:54.438Z,2.40
2023-02-11T00:07:04.523Z,2.55
2023-02-11T00:07:15.168Z,2.33
2023-02-11T00:07:24.437Z,2.34
2023-02-11T00:07:34.434Z,2.35
2023-02-11T00:07:44.434Z,2.30
2023-02-11T00:07:54.451Z,2.48
2023-02-11T00:08:04.432Z,2.44
2023-02-11T00:08:14.724Z,2.34
2023-02-11T00:08:24.502Z,2.41
2023-02-11T00:08:34.424Z,2.48
2023-02-11T00:08:44.439Z,2.33
2023-02-11T00:08:54.432Z,2.12
2023-02-11T00:09:04.425Z,2.45
2023-02-11T00:09:14.428Z,2.37
2023-02-11T00:09:24.435Z,2.20
2023-02-11T00:09:34.457Z,2.30
2023-02-11T00:09:44.439Z,2.44
2023-02-11T00:09:54.429Z,2.23
2023-02-11T00:10:04.428Z,2.51
2023-02-11T00:10:14.427Z,2.27
2023-02-11T00:10:24.420Z,2.40
2023-02-11T00:10:35.171Z,2.31
2023-02-11T00:10:44.426Z,2.30
2023-02-11T00:10:54.430Z,2.16
2023-02-11T00:11:04.480Z,2.40
2023-02-11T00:11:14.414Z,2.30
2023-02-11T00:11:24.414Z,2.31
2023-02-11T00:11:34.421Z,2.51
2023-02-11T00:11:44.423Z,2.30
2023-02-11T00:11:54.493Z,2.41
2023-02-11T00:12:04.426Z,2.40
2023-02-11T00:12:14.422Z,2.40
2023-02-11T00:12:24.454Z,2.41
2023-02-11T00:12:34.423Z,2.33
2023-02-11T00:12:44.408Z,2.28
2023-02-11T00:12:54.423Z,2.46
2023-02-11T00:13:04.422Z,2.33
2023-02-11T00:13:15.182Z,2.23
2023-02-11T00:13:24.459Z,2.33
2023-02-11T00:13:34.428Z,2.23
2023-02-11T00:13:44.410Z,2.33
2023-02-11T00:13:54.400Z,2.28
2023-02-11T00:14:04.400Z,2.15
2023-02-11T00:14:14.404Z,2.28
2023-02-11T00:14:24.399Z,2.40
2023-02-11T00:14:34.407Z,2.38
2023-02-11T00:14:44.403Z,2.40
2023-02-11T00:14:54.419Z,2.35
2023-02-11T00:15:04.417Z,2.38
2023-02-11T00:15:15.179Z,2.37
2023-02-11T00:15:24.399Z,2.49
2023-02-11T00:15:34.426Z,2.46
2023-02-11T00:15:44.404Z,2.37
2023-02-11T00:15:54.409Z,2.38
2023-02-11T00:16:04.398Z,2.38
2023-02-11T00:16:14.432Z,2.59
2023-02-11T00:16:24.473Z,2.51
2023-02-11T00:16:34.527Z,2.35
2023-02-11T00:16:44.523Z,2.46
2023-02-11T00:16:54.456Z,2.30
2023-02-11T00:17:04.402Z,2.30
2023-02-11T00:17:14.387Z,2.40
2023-02-11T00:17:24.393Z,2.71
2023-02-11T00:17:34.401Z,2.44
2023-02-11T00:17:44.390Z,2.37
2023-02-11T00:17:54.390Z,2.22
2023-02-11T00:18:04.450Z,2.46
2023-02-11T00:18:14.386Z,2.45
2023-02-11T00:18:24.417Z,2.46
2023-02-11T00:18:34.500Z,2.37
2023-02-11T00:18:44.387Z,2.58
2023-02-11T00:18:54.393Z,2.31
2023-02-11T00:19:04.381Z,2.52
2023-02-11T00:19:14.384Z,2.44
2023-02-11T00:19:25.189Z,2.55
2023-02-11T00:19:34.380Z,2.44
2023-02-11T00:19:44.380Z,2.48
2023-02-11T00:19:54.379Z,2.59
2023-02-11T00:20:06.625Z,2.58
2023-02-11T00:20:14.391Z,2.48
2023-02-11T00:20:24.381Z,2.46
2023-02-11T00:20:34.385Z,2.33
2023-02-11T00:20:44.373Z,2.45
2023-02-11T00:20:54.380Z,2.41
2023-02-11T00:21:04.377Z,2.52
2023-02-11T00:21:14.378Z,2.37
2023-02-11T00:21:24.383Z,2.59
2023-02-11T00:21:34.381Z,2.49
2023-02-11T00:21:44.378Z,2.45
2023-02-11T00:21:54.393Z,2.30
2023-02-11T00:22:04.382Z,2.53
2023-02-11T00:22:15.192Z,2.55
2023-02-11T00:22:24.363Z,2.41
2023-02-11T00:22:34.386Z,2.40
2023-02-11T00:22:44.373Z,2.53
2023-02-11T00:22:54.367Z,2.40
2023-02-11T00:23:04.364Z,2.44
2023-02-11T00:23:14.364Z,2.40
2023-02-11T00:23:24.367Z,2.55
2023-02-11T00:23:34.419Z,2.44
2023-02-11T00:23:44.498Z,2.30
2023-02-11T00:23:55.178Z,2.49
2023-02-11T00:24:04.375Z,2.41
2023-02-11T00:24:14.372Z,2.34
2023-02-11T00:24:24.361Z,2.45
2023-02-11T00:24:34.362Z,2.35
2023-02-11T00:24:44.380Z,2.48
2023-02-11T00:24:54.388Z,2.52
2023-02-11T00:25:04.432Z,2.35
2023-02-11T00:25:14.359Z,2.48
2023-02-11T00:25:24.370Z,2.45
2023-02-11T00:25:34.357Z,2.58
2023-02-11T00:25:44.357Z,2.64
2023-02-11T00:25:54.349Z,2.48
2023-02-11T00:26:04.353Z,2.46
2023-02-11T00:26:14.380Z,2.45
2023-02-11T00:26:25.184Z,2.51
2023-02-11T00:26:34.353Z,2.63
2023-02-11T00:26:44.350Z,2.45
2023-02-11T00:26:54.351Z,2.53
2023-02-11T00:27:04.354Z,2.37
2023-02-11T00:27:14.349Z,2.61
2023-02-11T00:27:25.256Z,2.48
2023-02-11T00:27:34.357Z,2.35
2023-02-11T00:27:44.371Z,2.51
2023-02-11T00:27:54.558Z,2.49
2023-02-11T00:28:04.397Z,2.56
2023-02-11T00:28:14.380Z,2.48
2023-02-11T00:28:24.395Z,2.45
2023-02-11T00:28:34.423Z,2.28
2023-02-11T00:28:44.337Z,2.49
2023-02-11T00:28:55.190Z,2.46
2023-02-11T00:29:04.365Z,2.53
2023-02-11T00:29:15.226Z,2.61
2023-02-11T00:29:24.334Z,2.41
2023-02-11T00:29:34.365Z,2.37
2023-02-11T00:29:44.333Z,2.55
2023-02-11T00:29:54.408Z,2.58
2023-02-11T00:30:05.181Z,2.41
2023-02-11T00:30:14.333Z,2.61
2023-02-11T00:30:24.535Z,2.53
2023-02-11T00:30:34.509Z,2.35
2023-02-11T00:30:44.467Z,2.56
2023-02-11T00:30:54.362Z,2.35
2023-02-11T00:31:04.446Z,2.52
2023-02-11T00:31:14.464Z,2.56
2023-02-11T00:31:24.458Z,2.46
2023-02-11T00:31:34.506Z,2.69
2023-02-11T00:31:44.434Z,2.52
2023-02-11T00:31:54.498Z,2.49
2023-02-11T00:32:04.530Z,2.52
2023-02-11T00:32:14.514Z,2.55
2023-02-11T00:32:24.318Z,2.37
2023-02-11T00:32:34.351Z,2.46
2023-02-11T00:32:44.332Z,2.61
2023-02-11T00:32:54.329Z,2.33
2023-02-11T00:33:04.326Z,2.51
2023-02-11T00:33:15.285Z,2.56
2023-02-11T00:33:25.195Z,2.69
2023-02-11T00:33:34.365Z,2.52
2023-02-11T00:33:44.326Z,2.49
2023-02-11T00:33:55.179Z,2.49
2023-02-11T00:34:04.365Z,2.61
2023-02-11T00:34:14.314Z,2.52
2023-02-11T00:34:24.322Z,2.58
2023-02-11T00:34:34.333Z,2.59
2023-02-11T00:34:44.410Z,2.53
2023-02-11T00:34:54.310Z,2.61
2023-02-11T00:35:04.323Z,2.63
2023-02-11T00:35:14.307Z,2.53
2023-02-11T00:35:24.308Z,2.61
2023-02-11T00:35:34.312Z,2.53
2023-02-11T00:35:44.307Z,2.73
2023-02-11T00:35:54.307Z,2.67
2023-02-11T00:36:04.310Z,2.64
2023-02-11T00:36:14.374Z,2.58
2023-02-11T00:36:24.322Z,2.53
2023-02-11T00:36:34.310Z,2.52
2023-02-11T00:36:44.314Z,2.82
2023-02-11T00:36:54.313Z,2.66
2023-02-11T00:37:04.324Z,2.70
2023-02-11T00:37:14.341Z,2.70
2023-02-11T00:37:24.299Z,2.66
2023-02-11T00:37:34.305Z,2.55
2023-02-11T00:37:44.296Z,2.67
2023-02-11T00:37:54.332Z,2.69
2023-02-11T00:38:04.326Z,2.55
2023-02-11T00:38:14.294Z,2.69
2023-02-11T00:38:24.305Z,2.76
2023-02-11T00:38:34.296Z,2.66
2023-02-11T00:38:44.302Z,2.53
2023-02-11T00:38:54.312Z,2.56
2023-02-11T00:39:04.390Z,2.69
2023-02-11T00:39:14.402Z,2.82
2023-02-11T00:39:24.302Z,2.56
2023-02-11T00:39:34.312Z,2.53
2023-02-11T00:39:44.294Z,2.87
2023-02-11T00:39:54.294Z,2.66
2023-02-11T00:40:06.648Z,2.82
2023-02-11T00:40:14.284Z,2.76
2023-02-11T00:40:25.182Z,2.70
2023-02-11T00:40:34.286Z,2.61
2023-02-11T00:40:44.319Z,2.56
2023-02-11T00:40:54.282Z,2.73
2023-02-11T00:41:04.309Z,2.59
2023-02-11T00:41:14.306Z,2.74
2023-02-11T00:41:24.291Z,2.70
2023-02-11T00:41:34.283Z,2.67
2023-02-11T00:41:44.282Z,2.66
2023-02-11T00:41:54.292Z,2.61
2023-02-11T00:42:04.303Z,2.67
2023-02-11T00:42:14.282Z,2.56
2023-02-11T00:42:24.286Z,2.58
2023-02-11T00:42:34.284Z,2.82
2023-02-11T00:42:44.273Z,2.73
2023-02-11T00:42:54.292Z,2.76
2023-02-11T00:43:05.207Z,2.73
2023-02-11T00:43:14.386Z,2.79
2023-02-11T00:43:24.273Z,2.85
2023-02-11T00:43:34.271Z,2.64
2023-02-11T00:43:47.228Z,2.94
2023-02-11T00:43:54.326Z,2.89
2023-02-11T00:44:04.302Z,2.84
2023-02-11T00:44:14.295Z,2.91
2023-02-11T00:44:24.340Z,2.84
2023-02-11T00:44:34.297Z,2.88
2023-02-11T00:44:44.271Z,2.76
2023-02-11T00:44:54.271Z,2.77
2023-02-11T00:45:04.288Z,2.92
2023-02-11T00:45:14.268Z,3.09
2023-02-11T00:45:24.275Z,2.88
2023-02-11T00:45:34.270Z,2.95
2023-02-11T00:45:44.281Z,2.97
2023-02-11T00:45:54.313Z,2.89
2023-02-11T00:46:04.280Z,2.94
2023-02-11T00:46:14.334Z,2.77
2023-02-11T00:46:24.426Z,3.02
2023-02-11T00:46:34.333Z,3.03
2023-02-11T00:46:44.341Z,3.00
2023-02-11T00:46:54.259Z,2.87
2023-02-11T00:47:04.260Z,2.94
2023-02-11T00:47:14.305Z,2.97
2023-02-11T00:47:25.172Z,3.15
2023-02-11T00:47:34.260Z,3.07
2023-02-11T00:47:44.266Z,3.21
2023-02-11T00:47:54.259Z,3.02
2023-02-11T00:48:04.254Z,3.12
2023-02-11T00:48:14.367Z,2.95
2023-02-11T00:48:24.255Z,3.21
2023-02-11T00:48:34.282Z,3.07
2023-02-11T00:48:44.266Z,3.23
2023-02-11T00:48:54.264Z,3.20
2023-02-11T00:49:04.250Z,3.15
2023-02-11T00:49:14.254Z,3.21
2023-02-11T00:49:24.271Z,3.20
2023-02-11T00:49:34.302Z,3.30
2023-02-11T00:49:44.313Z,3.13
2023-02-11T00:49:54.242Z,3.28
2023-02-11T00:50:04.252Z,3.33
2023-02-11T00:50:15.202Z,3.28
2023-02-11T00:50:24.243Z,3.21
2023-02-11T00:50:34.241Z,3.31
2023-02-11T00:50:44.265Z,3.18
2023-02-11T00:50:54.247Z,3.12
2023-02-11T00:51:04.246Z,3.27
2023-02-11T00:51:14.345Z,3.25
2023-02-11T00:51:24.251Z,3.27
2023-02-11T00:51:35.197Z,3.13
2023-02-11T00:51:45.172Z,3.16
2023-02-11T00:51:55.169Z,3.30
2023-02-11T00:52:04.246Z,3.20
2023-02-11T00:52:14.239Z,3.43
2023-02-11T00:52:24.256Z,3.39
2023-02-11T00:52:34.238Z,3.39
2023-02-11T00:52:44.239Z,3.23
2023-02-11T00:52:54.260Z,3.44
2023-02-11T00:53:04.231Z,3.36
2023-02-11T00:53:14.231Z,3.09
2023-02-11T00:53:24.237Z,3.23
2023-02-11T00:53:34.248Z,3.10
2023-02-11T00:53:44.225Z,3.28
2023-02-11T00:53:54.245Z,3.24
2023-02-11T00:54:04.228Z,3.44
2023-02-11T00:54:14.298Z,3.34
2023-02-11T00:54:24.315Z,3.28
2023-02-11T00:54:34.220Z,3.18
2023-02-11T00:54:44.268Z,3.28
2023-02-11T00:54:54.223Z,3.24
2023-02-11T00:55:04.239Z,3.30
2023-02-11T00:55:14.239Z,3.36
2023-02-11T00:55:24.226Z,3.53
2023-02-11T00:55:34.245Z,3.39
2023-02-11T00:55:44.255Z,3.40
2023-02-11T00:55:54.231Z,3.31
2023-02-11T00:56:04.246Z,3.42
2023-02-11T00:56:14.217Z,3.54
2023-02-11T00:56:24.242Z,3.18
2023-02-11T00:56:34.215Z,3.16
2023-02-11T00:56:44.214Z,3.15
2023-02-11T00:56:54.245Z,3.24
2023-02-11T00:57:04.225Z,3.33
2023-02-11T00:57:14.315Z,3.36
2023-02-11T00:57:24.219Z,3.30
2023-02-11T00:57:34.221Z,3.31
2023-02-11T00:57:44.231Z,3.36
2023-02-11T00:57:54.216Z,3.36
2023-02-11T00:58:04.224Z,3.34
2023-02-11T00:58:14.206Z,3.40
2023-02-11T00:58:24.227Z,3.52
2023-02-11T00:58:35.246Z,3.54
2023-02-11T00:58:44.208Z,3.54
2023-02-11T00:58:54.342Z,3.46
2023-02-11T00:59:04.248Z,3.34
2023-02-11T00:59:14.200Z,3.34
2023-02-11T00:59:24.201Z,3.40
2023-02-11T00:59:34.210Z,3.52
2023-02-11T00:59:44.203Z,3.46
2023-02-11T00:59:54.765Z,3.40
2023-02-11T01:00:04.231Z,3.61
2023-02-11T01:00:14.239Z,3.42
2023-02-11T01:00:24.196Z,3.33
2023-02-11T01:00:34.201Z,3.52
2023-02-11T01:00:44.204Z,3.49
2023-02-11T01:00:54.213Z,3.46
2023-02-11T01:01:04.267Z,3.25
2023-02-11T01:01:14.257Z,3.31
2023-02-11T01:01:24.366Z,3.61
2023-02-11T01:01:34.243Z,3.30
2023-02-11T01:01:44.306Z,3.40
2023-02-11T01:01:54.194Z,3.53
2023-02-11T01:02:04.237Z,3.43
2023-02-11T01:02:14.191Z,3.36
2023-02-11T01:02:24.190Z,3.44
2023-02-11T01:02:34.193Z,3.42
2023-02-11T01:02:45.204Z,3.42
2023-02-11T01:02:54.195Z,3.30
2023-02-11T01:03:04.197Z,3.39
2023-02-11T01:03:14.200Z,3.40
2023-02-11T01:03:24.202Z,3.40
2023-02-11T01:03:34.190Z,3.46
2023-02-11T01:03:44.224Z,3.44
2023-02-11T01:03:54.202Z,3.62
2023-02-11T01:04:04.283Z,3.44
2023-02-11T01:04:14.182Z,3.31
2023-02-11T01:04:24.194Z,3.33
2023-02-11T01:04:34.212Z,3.40
2023-02-11T01:04:44.176Z,3.36
2023-02-11T01:04:54.363Z,3.43
2023-02-11T01:05:04.415Z,3.50
2023-02-11T01:05:14.237Z,3.47
2023-02-11T01:05:24.299Z,3.36
2023-02-11T01:05:34.362Z,3.43
2023-02-11T01:05:44.180Z,3.27
2023-02-11T01:05:54.199Z,3.36
2023-02-11T01:06:04.184Z,3.28
2023-02-11T01:06:14.176Z,3.47
2023-02-11T01:06:24.183Z,3.57
2023-02-11T01:06:34.174Z,3.57
2023-02-11T01:06:44.256Z,3.47
2023-02-11T01:06:54.203Z,3.46
2023-02-11T01:07:04.185Z,3.49
2023-02-11T01:07:14.169Z,3.43
2023-02-11T01:07:24.169Z,3.40
2023-02-11T01:07:34.283Z,3.46
2023-02-11T01:07:44.170Z,3.57
2023-02-11T01:07:54.195Z,3.49
2023-02-11T01:08:04.164Z,3.61
2023-02-11T01:08:14.166Z,3.18
2023-02-11T01:08:24.283Z,3.40
2023-02-11T01:08:34.172Z,3.52
2023-02-11T01:08:44.176Z,3.64
2023-02-11T01:08:54.172Z,3.53
2023-02-11T01:09:04.162Z,3.57
2023-02-11T01:09:14.161Z,3.58
2023-02-11T01:09:24.217Z,3.50
2023-02-11T01:09:34.168Z,3.49
2023-02-11T01:09:44.695Z,3.52
2023-02-11T01:09:54.170Z,3.54
2023-02-11T01:10:04.183Z,3.54
2023-02-11T01:10:14.208Z,3.58
2023-02-11T01:10:24.181Z,3.72
2023-02-11T01:10:34.213Z,3.47
2023-02-11T01:10:44.282Z,3.62
2023-02-11T01:10:54.153Z,3.68
2023-02-11T01:11:04.163Z,3.61
2023-02-11T01:11:14.160Z,3.72
2023-02-11T01:11:24.186Z,3.50
2023-02-11T01:11:34.158Z,3.61
2023-02-11T01:11:44.153Z,3.61
2023-02-11T01:11:54.164Z,3.50
2023-02-11T01:12:04.164Z,3.53
2023-02-11T01:12:14.165Z,3.61
2023-02-11T01:12:24.172Z,3.71
2023-02-11T01:12:36.378Z,3.67
2023-02-11T01:12:44.172Z,3.75
2023-02-11T01:12:54.157Z,3.49
2023-02-11T01:13:04.153Z,3.64
2023-02-11T01:13:14.149Z,3.75
2023-02-11T01:13:24.153Z,3.61
2023-02-11T01:13:34.171Z,3.57
2023-02-11T01:13:44.177Z,3.64
2023-02-11T01:13:54.688Z,3.64
2023-02-11T01:14:04.191Z,3.58
2023-02-11T01:14:14.143Z,3.86
2023-02-11T01:14:24.214Z,3.72
2023-02-11T01:14:34.189Z,3.80
2023-02-11T01:14:44.234Z,3.86
2023-02-11T01:14:54.137Z,3.71
2023-02-11T01:15:04.221Z,3.89
2023-02-11T01:15:14.144Z,3.88
2023-02-11T01:15:24.269Z,3.76
2023-02-11T01:15:34.281Z,3.83
2023-02-11T01:15:44.180Z,3.86
2023-02-11T01:15:54.348Z,3.90
2023-02-11T01:16:04.277Z,3.88
2023-02-11T01:16:14.258Z,3.92
2023-02-11T01:16:24.213Z,3.85
2023-02-11T01:16:34.142Z,3.85
2023-02-11T01:16:44.767Z,3.70
2023-02-11T01:16:54.136Z,3.80
2023-02-11T01:17:04.142Z,3.94
2023-02-11T01:17:14.241Z,3.94
2023-02-11T01:17:24.142Z,3.82
2023-02-11T01:17:34.132Z,3.89
2023-02-11T01:17:44.131Z,3.85
2023-02-11T01:17:54.138Z,3.98
2023-02-11T01:18:04.217Z,3.72
2023-02-11T01:18:14.129Z,3.76
2023-02-11T01:18:24.209Z,3.88
2023-02-11T01:18:34.132Z,3.89
2023-02-11T01:18:44.147Z,3.96
2023-02-11T01:18:54.704Z,3.94
2023-02-11T01:19:04.130Z,3.88
2023-02-11T01:19:14.121Z,4.01
2023-02-11T01:19:24.148Z,4.03
2023-02-11T01:19:34.700Z,3.98
2023-02-11T01:19:44.130Z,4.14
2023-02-11T01:19:54.149Z,4.06
2023-02-11T01:20:04.140Z,4.03
2023-02-11T01:20:14.123Z,4.10
2023-02-11T01:20:24.237Z,4.03
2023-02-11T01:20:34.230Z,4.00
2023-02-11T01:20:44.120Z,4.08
2023-02-11T01:20:54.690Z,3.92
2023-02-11T01:21:04.145Z,3.98
2023-02-11T01:21:14.122Z,4.12
2023-02-11T01:21:24.179Z,3.92
2023-02-11T01:21:34.114Z,4.07
2023-02-11T01:21:46.742Z,4.00
2023-02-11T01:21:54.153Z,4.03
2023-02-11T01:22:04.123Z,3.96
2023-02-11T01:22:14.276Z,4.14
2023-02-11T01:22:24.170Z,4.07
2023-02-11T01:22:34.108Z,4.24
2023-02-11T01:22:44.138Z,4.00
2023-02-11T01:22:54.114Z,3.97
2023-02-11T01:23:04.128Z,4.04
2023-02-11T01:23:14.128Z,3.88
2023-02-11T01:23:24.683Z,4.18
2023-02-11T01:23:34.129Z,4.06
2023-02-11T01:23:44.159Z,4.08
2023-02-11T01:23:54.120Z,4.10
2023-02-11T01:24:04.107Z,4.08
2023-02-11T01:24:14.128Z,3.92
2023-02-11T01:24:24.112Z,3.96
2023-02-11T01:24:34.122Z,4.10
2023-02-11T01:24:44.681Z,4.08
2023-02-11T01:24:54.144Z,4.01
2023-02-11T01:25:04.676Z,3.98
2023-02-11T01:25:14.128Z,4.00
2023-02-11T01:25:24.113Z,4.16
2023-02-11T01:25:34.107Z,4.19
2023-02-11T01:25:44.175Z,4.01
2023-02-11T01:25:54.095Z,4.08
2023-02-11T01:26:04.097Z,4.08
2023-02-11T01:26:14.138Z,4.08
2023-02-11T01:26:24.125Z,3.94
2023-02-11T01:26:34.156Z,4.04
2023-02-11T01:26:44.095Z,4.12
2023-02-11T01:26:54.123Z,4.03
2023-02-11T01:27:04.217Z,4.04
2023-02-11T01:27:14.115Z,4.04
2023-02-11T01:27:24.145Z,3.97
2023-02-11T01:27:34.112Z,4.18
2023-02-11T01:27:44.089Z,3.85
2023-02-11T01:27:54.748Z,4.16
2023-02-11T01:28:04.136Z,4.04
2023-02-11T01:28:14.157Z,4.04
2023-02-11T01:28:24.217Z,4.18
2023-02-11T01:28:34.176Z,3.85
2023-02-11T01:28:44.089Z,4.15
2023-02-11T01:28:54.078Z,4.08
2023-02-11T01:29:04.080Z,4.06
2023-02-11T01:29:14.086Z,3.94
2023-02-11T01:29:24.702Z,4.01
2023-02-11T01:29:34.080Z,4.18
2023-02-11T01:29:44.091Z,3.92
2023-02-11T01:29:54.101Z,4.08
2023-02-11T01:30:04.084Z,4.12
2023-02-11T01:30:14.080Z,4.04
2023-02-11T01:30:24.103Z,3.88
2023-02-11T01:30:34.078Z,4.03
2023-02-11T01:30:44.748Z,3.94
2023-02-11T01:30:54.171Z,3.78
2023-02-11T01:31:04.208Z,4.12
2023-02-11T01:31:14.750Z,4.10
2023-02-11T01:31:24.175Z,4.16
2023-02-11T01:31:34.227Z,4.19
2023-02-11T01:31:44.156Z,4.12
2023-02-11T01:31:54.103Z,4.01
2023-02-11T01:32:04.184Z,4.25
2023-02-11T01:32:14.265Z,4.33
2023-02-11T01:32:24.681Z,4.22
2023-02-11T01:32:34.097Z,4.16
2023-02-11T01:32:44.070Z,4.25
2023-02-11T01:32:54.066Z,4.21
2023-02-11T01:33:04.089Z,4.22
2023-02-11T01:33:14.685Z,4.25
2023-02-11T01:33:24.065Z,4.25
2023-02-11T01:33:34.150Z,4.24
2023-02-11T01:33:44.096Z,4.29
2023-02-11T01:33:54.062Z,4.15
2023-02-11T01:34:04.060Z,4.07
2023-02-11T01:34:14.082Z,4.15
2023-02-11T01:34:24.064Z,4.16
2023-02-11T01:34:34.086Z,4.50
2023-02-11T01:34:44.056Z,4.29
2023-02-11T01:34:54.127Z,4.15
2023-02-11T01:35:04.069Z,4.07
2023-02-11T01:35:14.073Z,4.10
2023-02-11T01:35:24.051Z,4.19
2023-02-11T01:35:34.065Z,4.15
2023-02-11T01:35:44.063Z,4.29
2023-02-11T01:35:54.054Z,4.33
2023-02-11T01:36:04.111Z,4.19
2023-02-11T01:36:14.053Z,4.22
2023-02-11T01:36:24.184Z,4.24
2023-02-11T01:36:34.062Z,4.22
2023-02-11T01:36:44.057Z,4.16
2023-02-11T01:36:54.060Z,4.16
2023-02-11T01:37:04.090Z,4.10
2023-02-11T01:37:14.156Z,4.15
2023-02-11T01:37:24.048Z,4.33
2023-02-11T01:37:34.050Z,4.26
2023-02-11T01:37:44.116Z,4.18
2023-02-11T01:37:54.044Z,4.28
2023-02-11T01:38:04.040Z,4.12
2023-02-11T01:38:14.069Z,4.33
2023-02-11T01:38:24.054Z,4.22
2023-02-11T01:38:34.055Z,4.26
2023-02-11T01:38:44.053Z,4.21
2023-02-11T01:38:54.111Z,4.19
2023-02-11T01:39:04.688Z,4.10
2023-02-11T01:39:14.044Z,4.24
2023-02-11T01:39:24.038Z,4.14
2023-02-11T01:39:34.047Z,4.37
2023-02-11T01:39:44.037Z,4.28
2023-02-11T01:39:54.049Z,4.26
2023-02-11T01:40:04.044Z,4.29
2023-02-11T01:40:14.051Z,4.14
2023-02-11T01:40:24.028Z,4.18
2023-02-11T01:40:34.127Z,4.25
2023-02-11T01:40:44.043Z,4.16
2023-02-11T01:40:54.025Z,4.25
2023-02-11T01:41:04.054Z,4.28
2023-02-11T01:41:14.118Z,4.25
2023-02-11T01:41:24.035Z,4.21
2023-02-11T01:41:34.027Z,4.28
2023-02-11T01:41:44.047Z,4.39
2023-02-11T01:41:54.705Z,4.15
2023-02-11T01:42:04.031Z,4.42
2023-02-11T01:42:14.036Z,4.54
2023-02-11T01:42:24.029Z,4.29
2023-02-11T01:42:34.035Z,4.26
2023-02-11T01:42:44.069Z,4.46
2023-02-11T01:42:54.018Z,4.16
2023-02-11T01:43:04.026Z,4.28
2023-02-11T01:43:14.019Z,4.15
2023-02-11T01:43:24.035Z,4.10
2023-02-11T01:43:34.073Z,4.33
2023-02-11T01:43:44.117Z,4.33
2023-02-11T01:43:54.035Z,4.32
2023-02-11T01:44:04.032Z,4.19
2023-02-11T01:44:14.097Z,4.24
2023-02-11T01:44:24.018Z,4.32
2023-02-11T01:44:34.052Z,4.34
2023-02-11T01:44:44.688Z,4.40
2023-02-11T01:44:54.053Z,4.32
2023-02-11T01:45:04.013Z,4.37
2023-02-11T01:45:14.017Z,4.47
2023-02-11T01:45:24.013Z,4.42
2023-02-11T01:45:34.023Z,4.29
2023-02-11T01:45:44.004Z,4.36
2023-02-11T01:45:54.031Z,4.28
2023-02-11T01:46:04.095Z,4.39
2023-02-11T01:46:14.130Z,4.40
2023-02-11T01:46:24.203Z,4.32
2023-02-11T01:46:34.202Z,4.52
2023-02-11T01:46:44.104Z,4.37
2023-02-11T01:46:54.128Z,4.33
2023-02-11T01:47:04.002Z,4.47
2023-02-11T01:47:14.004Z,4.33
2023-02-11T01:47:24.005Z,4.37
2023-02-11T01:47:34.104Z,4.55
2023-02-11T01:47:44.003Z,4.26
2023-02-11T01:47:54.004Z,4.32
2023-02-11T01:48:03.998Z,4.26
2023-02-11T01:48:14.005Z,4.25
2023-02-11T01:48:23.999Z,4.40
2023-02-11T01:48:33.997Z,4.33
2023-02-11T01:48:43.996Z,4.36
2023-02-11T01:48:54.130Z,4.37
2023-02-11T01:49:04.044Z,4.33
2023-02-11T01:49:14.153Z,4.21
2023-02-11T01:49:24.074Z,4.32
2023-02-11T01:49:34.029Z,4.42
2023-02-11T01:49:44.009Z,4.47
2023-02-11T01:49:53.993Z,4.40
2023-02-11T01:50:03.993Z,4.36
2023-02-11T01:50:14.030Z,4.36
2023-02-11T01:50:24.014Z,4.40
2023-02-11T01:50:33.987Z,4.39
2023-02-11T01:50:44.000Z,4.28
2023-02-11T01:50:53.992Z,4.37
2023-02-11T01:51:03.991Z,4.33
2023-02-11T01:51:14.011Z,4.37
2023-02-11T01:51:24.688Z,4.33
2023-02-11T01:51:34.057Z,4.34
2023-02-11T01:51:44.049Z,4.26
2023-02-11T01:51:53.979Z,4.16
2023-02-11T01:52:03.986Z,4.18
2023-02-11T01:52:13.999Z,4.54
2023-02-11T01:52:24.018Z,4.54
2023-02-11T01:52:33.987Z,4.39
2023-02-11T01:52:43.975Z,4.26
2023-02-11T01:52:53.990Z,4.42
2023-02-11T01:53:04.687Z,4.29
2023-02-11T01:53:13.973Z,4.42
2023-02-11T01:53:23.990Z,4.34
2023-02-11T01:53:34.692Z,4.29
2023-02-11T01:53:43.976Z,4.34
2023-02-11T01:53:53.984Z,4.26
2023-02-11T01:54:04.014Z,4.24
2023-02-11T01:54:13.986Z,4.15
2023-02-11T01:54:24.049Z,4.25
2023-02-11T01:54:33.981Z,4.46
2023-02-11T01:54:43.977Z,4.42
2023-02-11T01:54:53.991Z,4.40
2023-02-11T01:55:03.989Z,4.50
2023-02-11T01:55:13.979Z,4.36
2023-02-11T01:55:23.992Z,4.39
2023-02-11T01:55:33.965Z,4.39
2023-02-11T01:55:43.969Z,4.26
2023-02-11T01:55:54.713Z,4.22
2023-02-11T01:56:03.970Z,4.37
2023-02-11T01:56:13.978Z,4.40
2023-02-11T01:56:23.964Z,4.36
2023-02-11T01:56:33.961Z,4.28
2023-02-11T01:56:44.709Z,4.29
2023-02-11T01:56:56.804Z,4.34
2023-02-11T01:57:03.958Z,4.34
2023-02-11T01:57:13.979Z,4.50
2023-02-11T01:57:23.962Z,4.40
2023-02-11T01:57:33.964Z,4.16
2023-02-11T01:57:43.962Z,4.25
2023-02-11T01:57:53.971Z,4.39
2023-02-11T01:58:04.154Z,4.44
2023-02-11T01:58:16.706Z,4.36
2023-02-11T01:58:23.952Z,4.43
2023-02-11T01:58:33.957Z,4.26
2023-02-11T01:58:44.046Z,4.39
2023-02-11T01:58:53.973Z,4.22
2023-02-11T01:59:03.960Z,4.28
2023-02-11T01:59:14.100Z,4.29
2023-02-11T01:59:23.949Z,4.51
2023-02-11T01:59:33.963Z,4.29
2023-02-11T01:59:43.957Z,4.32
2023-02-11T01:59:53.945Z,4.37
2023-02-11T02:00:04.700Z,4.47
2023-02-11T02:00:13.968Z,4.52
2023-02-11T02:00:23.954Z,4.51
2023-02-11T02:00:33.958Z,4.43
2023-02-11T02:00:43.963Z,4.40
2023-02-11T02:00:53.966Z,4.25
2023-02-11T02:01:03.953Z,4.43
2023-02-11T02:01:13.994Z,4.39
2023-02-11T02:01:23.967Z,4.36
2023-02-11T02:01:34.100Z,4.50
2023-02-11T02:01:43.975Z,4.33
2023-02-11T02:01:54.034Z,4.40
2023-02-11T02:02:03.955Z,4.52
2023-02-11T02:02:13.979Z,4.52
2023-02-11T02:02:24.014Z,4.47
2023-02-11T02:02:33.932Z,4.32
2023-02-11T02:02:43.959Z,4.51
2023-02-11T02:02:54.697Z,4.19
2023-02-11T02:03:03.941Z,4.22
2023-02-11T02:03:13.974Z,4.40
2023-02-11T02:03:23.968Z,4.32
2023-02-11T02:03:34.010Z,4.36
2023-02-11T02:03:44.008Z,4.32
2023-02-11T02:03:54.043Z,4.55
2023-02-11T02:04:03.984Z,4.42
2023-02-11T02:04:13.987Z,4.36
2023-02-11T02:04:23.942Z,4.51
2023-02-11T02:04:33.938Z,4.36
2023-02-11T02:04:43.951Z,4.58
2023-02-11T02:04:53.950Z,4.51
2023-02-11T02:05:03.934Z,4.47
2023-02-11T02:05:13.928Z,4.39
2023-02-11T02:05:23.938Z,4.46
2023-02-11T02:05:33.938Z,4.28
2023-02-11T02:05:44.014Z,4.34
2023-02-11T02:05:53.921Z,4.44
2023-02-11T02:06:03.930Z,4.43
2023-02-11T02:06:13.939Z,4.36
2023-02-11T02:06:23.992Z,4.47
2023-02-11T02:06:33.934Z,4.28
2023-02-11T02:06:43.922Z,4.54
2023-02-11T02:06:53.926Z,4.51
2023-02-11T02:07:04.266Z,4.42
2023-02-11T02:07:13.919Z,4.28
2023-02-11T02:07:23.916Z,4.40
2023-02-11T02:07:33.919Z,4.37
2023-02-11T02:07:43.965Z,4.72
2023-02-11T02:07:53.917Z,4.42
2023-02-11T02:08:03.914Z,4.36
2023-02-11T02:08:13.939Z,4.70
2023-02-11T02:08:23.933Z,4.32
2023-02-11T02:08:33.907Z,4.50
2023-02-11T02:08:46.711Z,4.52
2023-02-11T02:08:53.919Z,4.59
2023-02-11T02:09:03.953Z,4.29
2023-02-11T02:09:13.964Z,4.47
2023-02-11T02:09:23.925Z,4.40
2023-02-11T02:09:33.917Z,4.37
2023-02-11T02:09:43.911Z,4.47
2023-02-11T02:09:53.983Z,4.42
2023-02-11T02:10:03.929Z,4.39
2023-02-11T02:10:13.941Z,4.54
2023-02-11T02:10:23.901Z,4.44
2023-02-11T02:10:33.925Z,4.40
2023-02-11T02:10:43.906Z,4.43
2023-02-11T02:10:53.905Z,4.39
2023-02-11T02:11:03.919Z,4.50
2023-02-11T02:11:14.697Z,4.32
2023-02-11T02:11:23.898Z,4.43
2023-02-11T02:11:33.898Z,4.59
2023-02-11T02:11:43.908Z,4.54
2023-02-11T02:11:53.918Z,4.57
2023-02-11T02:12:03.896Z,4.37
2023-02-11T02:12:14.050Z,4.47
2023-02-11T02:12:24.010Z,4.62
2023-02-11T02:12:33.897Z,4.44
2023-02-11T02:12:43.998Z,4.44
2023-02-11T02:12:53.912Z,4.36
2023-02-11T02:13:03.901Z,4.64